createdAt,value
2018-08-23T00:00:47.436Z,53.90
2018-08-23T00:03:20.425Z,53.60
2018-08-23T00:05:53.288Z,53.60
2018-08-23T00:08:21.443Z,53.50
2018-08-23T00:10:49.633Z,54.30
2018-08-23T00:13:17.283Z,54.70
2018-08-23T00:15:44.878Z,54.30
2018-08-23T00:18:12.513Z,53.90
2018-08-23T00:20:40.143Z,54.50
2018-08-23T00:23:08.231Z,55.00
2018-08-23T00:25:36.620Z,55.10
2018-08-23T00:28:04.627Z,55.30
2018-08-23T00:30:32.982Z,55.00
2018-08-23T00:33:01.870Z,55.30
2018-08-23T00:35:31.384Z,55.00
2018-08-23T00:37:58.931Z,55.50
2018-08-23T00:40:26.513Z,55.50
2018-08-23T00:42:59.529Z,55.70
2018-08-23T00:45:27.084Z,56.70
2018-08-23T00:47:54.640Z,55.50
2018-08-23T00:50:26.265Z,55.90
2018-08-23T00:52:53.837Z,55.30
2018-08-23T00:55:27.783Z,55.30
2018-08-23T00:57:55.347Z,56.60
2018-08-23T01:00:24.203Z,56.10
2018-08-23T01:02:53.256Z,56.40
2018-08-23T01:05:26.490Z,56.70
2018-08-23T01:07:54.068Z,56.60
2018-08-23T01:10:21.684Z,55.90
2018-08-23T01:12:52.192Z,56.40
2018-08-23T01:15:20.046Z,56.60
2018-08-23T01:17:47.985Z,56.80
2018-08-23T01:20:15.515Z,56.40
2018-08-23T01:22:48.635Z,56.10
2018-08-23T01:25:16.239Z,56.10
2018-08-23T01:27:43.783Z,55.90
2018-08-23T01:30:12.336Z,56.60
2018-08-23T01:32:39.926Z,55.90
2018-08-23T01:35:09.382Z,56.20
2018-08-23T01:37:38.566Z,56.30
2018-08-23T01:40:07.027Z,57.30
2018-08-23T01:42:36.431Z,57.20
2018-08-23T01:45:05.223Z,57.10
2018-08-23T01:47:34.184Z,56.90
2018-08-23T01:50:01.740Z,56.70
2018-08-23T01:52:29.340Z,56.80
2018-08-23T01:54:56.893Z,57.30
2018-08-23T01:57:27.988Z,57.20
2018-08-23T01:59:55.550Z,57.40
2018-08-23T02:02:23.152Z,57.70
2018-08-23T02:04:50.688Z,57.90
2018-08-23T02:07:18.312Z,57.90
2018-08-23T02:09:45.896Z,58.20
2018-08-23T02:12:13.613Z,57.80
2018-08-23T02:14:45.335Z,58.00
2018-08-23T02:17:13.192Z,57.80
2018-08-23T02:19:41.748Z,57.40
2018-08-23T02:22:09.312Z,57.20
2018-08-23T02:24:36.868Z,58.40
2018-08-23T02:27:04.501Z,58.30
2018-08-23T02:29:37.641Z,58.50
2018-08-23T02:32:05.433Z,57.80
2018-08-23T02:34:38.420Z,58.00
2018-08-23T02:37:05.972Z,58.50
2018-08-23T02:39:33.522Z,58.10
2018-08-23T02:42:01.101Z,57.60
2018-08-23T02:44:28.750Z,58.40
2018-08-23T02:46:56.336Z,58.00
2018-08-23T02:49:23.983Z,58.10
2018-08-23T02:51:52.179Z,58.50
2018-08-23T02:54:19.920Z,59.50
2018-08-23T02:56:53.009Z,58.40
2018-08-23T02:59:20.734Z,58.70
2018-08-23T03:01:49.287Z,59.10
2018-08-23T03:04:22.902Z,59.50
2018-08-23T03:06:50.861Z,59.50
2018-08-23T03:09:20.752Z,59.20
2018-08-23T03:11:49.245Z,58.60
2018-08-23T03:17:15.447Z,59.70
2018-08-23T03:19:48.734Z,59.80
2018-08-23T03:22:16.316Z,59.70
2018-08-23T03:24:43.867Z,59.50
2018-08-23T03:27:11.487Z,59.00
2018-08-23T03:29:40.095Z,59.40
2018-08-23T03:32:07.656Z,60.00
2018-08-23T03:34:35.239Z,59.50
2018-08-23T03:37:02.812Z,59.20
2018-08-23T03:39:30.962Z,59.40
2018-08-23T03:41:58.547Z,59.60
2018-08-23T03:44:31.475Z,60.80
2018-08-23T03:46:59.120Z,60.40
2018-08-23T03:49:31.479Z,60.30
2018-08-23T03:51:59.294Z,60.40
2018-08-23T03:54:26.888Z,60.40
2018-08-23T03:57:05.585Z,59.80
2018-08-23T03:59:33.145Z,60.20
2018-08-23T04:02:00.667Z,59.60
2018-08-23T04:04:28.566Z,59.90
2018-08-23T04:06:56.078Z,59.70
2018-08-23T04:09:23.616Z,60.40
2018-08-23T04:11:51.136Z,59.60
2018-08-23T04:14:18.678Z,60.60
2018-08-23T04:16:46.272Z,59.90
2018-08-23T04:19:13.897Z,60.30
2018-08-23T04:21:41.433Z,60.70
2018-08-23T04:24:09.004Z,60.60
2018-08-23T04:26:36.620Z,60.70
2018-08-23T04:29:04.310Z,61.10
2018-08-23T04:31:31.855Z,60.60
2018-08-23T04:33:59.459Z,61.30
2018-08-23T04:36:27.109Z,60.40
2018-08-23T04:38:59.627Z,60.30
2018-08-23T04:41:27.575Z,60.50
2018-08-23T04:43:57.523Z,60.60
2018-08-23T04:46:25.089Z,61.10
2018-08-23T04:48:52.637Z,61.10
2018-08-23T04:51:24.065Z,61.10
2018-08-23T04:53:51.659Z,61.30
2018-08-23T04:56:19.216Z,60.30
2018-08-23T04:58:46.754Z,60.70
2018-08-23T05:01:14.309Z,61.50
2018-08-23T05:03:41.879Z,60.40
2018-08-23T05:06:09.403Z,59.90
2018-08-23T05:08:36.953Z,62.00
2018-08-23T05:11:04.511Z,61.10
2018-08-23T05:13:32.062Z,60.70
2018-08-23T05:15:59.610Z,61.40
2018-08-23T05:18:27.136Z,61.20
2018-08-23T05:20:54.685Z,61.90
2018-08-23T05:23:22.232Z,61.40
2018-08-23T05:25:50.773Z,61.20
2018-08-23T05:28:19.452Z,60.60
2018-08-23T05:30:47.692Z,60.20
2018-08-23T05:33:16.387Z,60.20
2018-08-23T05:35:43.932Z,60.20
2018-08-23T05:38:12.118Z,60.60
2018-08-23T05:40:51.444Z,60.40
2018-08-23T05:43:18.975Z,60.20
2018-08-23T05:45:52.183Z,60.50
2018-08-23T05:48:32.018Z,60.70
2018-08-23T05:51:00.050Z,61.40
2018-08-23T05:53:27.600Z,62.20
2018-08-23T05:55:56.469Z,62.50
2018-08-23T05:58:26.506Z,60.70
2018-08-23T06:00:54.234Z,61.40
2018-08-23T06:03:22.901Z,62.30
2018-08-23T06:05:50.918Z,62.70
2018-08-23T06:08:18.586Z,62.00
2018-08-23T06:10:46.111Z,61.70
2018-08-23T06:13:13.741Z,62.10
2018-08-23T06:15:46.731Z,61.70
2018-08-23T06:18:16.392Z,62.20
2018-08-23T06:20:43.959Z,61.50
2018-08-23T06:23:11.540Z,62.30
2018-08-23T06:25:39.385Z,61.40
2018-08-23T06:28:12.622Z,61.00
2018-08-23T06:30:40.179Z,61.10
2018-08-23T06:33:07.797Z,62.30
2018-08-23T06:35:38.725Z,62.50
2018-08-23T06:38:07.448Z,61.00
2018-08-23T06:40:35.002Z,61.90
2018-08-23T06:43:03.146Z,62.20
2018-08-23T06:45:30.914Z,61.00
2018-08-23T06:48:00.224Z,59.80
2018-08-23T06:50:27.882Z,58.60
2018-08-23T06:52:55.487Z,57.00
2018-08-23T06:55:27.304Z,56.30
2018-08-23T06:58:00.342Z,56.10
2018-08-23T07:00:28.193Z,56.60
2018-08-23T07:02:55.965Z,56.90
2018-08-23T07:05:23.803Z,57.10
2018-08-23T07:07:51.648Z,58.20
2018-08-23T07:10:19.228Z,56.30
2018-08-23T07:12:46.808Z,56.00
2018-08-23T07:15:14.362Z,55.30
2018-08-23T07:17:41.973Z,55.60
2018-08-23T07:20:12.125Z,55.20
2018-08-23T07:22:39.669Z,54.80
2018-08-23T07:25:10.060Z,54.30
2018-08-23T07:27:37.624Z,55.40
2018-08-23T07:30:05.796Z,54.70
2018-08-23T07:32:33.218Z,53.40
2018-08-23T07:35:04.767Z,52.80
2018-08-23T07:37:33.606Z,51.70
2018-08-23T07:40:06.708Z,51.50
2018-08-23T07:42:35.338Z,51.40
2018-08-23T07:45:03.274Z,51.70
2018-08-23T07:47:31.446Z,50.90
2018-08-23T07:50:00.233Z,50.10
2018-08-23T07:52:29.054Z,49.40
2018-08-23T07:54:56.801Z,48.60
2018-08-23T07:57:24.397Z,48.50
2018-08-23T07:59:57.312Z,48.20
2018-08-23T08:02:25.228Z,48.10
2018-08-23T08:04:52.755Z,47.40
2018-08-23T08:07:24.689Z,48.40
2018-08-23T08:09:52.243Z,46.60
2018-08-23T08:12:25.396Z,46.40
2018-08-23T08:14:53.004Z,45.70
2018-08-23T08:17:38.286Z,44.80
2018-08-23T08:20:06.541Z,45.10
2018-08-23T08:22:34.087Z,44.70
2018-08-23T08:25:08.500Z,44.20
2018-08-23T08:27:36.329Z,43.10
2018-08-23T08:30:04.144Z,43.80
2018-08-23T08:32:31.733Z,43.40
2018-08-23T08:34:59.527Z,43.60
2018-08-23T08:37:27.789Z,43.00
2018-08-23T08:39:55.491Z,43.10
2018-08-23T08:42:26.630Z,42.40
2018-08-23T08:44:57.991Z,43.10
2018-08-23T08:47:25.509Z,41.60
2018-08-23T08:49:53.066Z,41.60
2018-08-23T08:52:20.723Z,41.00
2018-08-23T08:54:48.272Z,41.20
2018-08-23T08:57:15.894Z,42.70
2018-08-23T08:59:43.381Z,42.40
2018-08-23T09:02:10.912Z,43.10
2018-08-23T09:04:38.464Z,43.10
2018-08-23T09:07:05.991Z,42.40
2018-08-23T09:09:38.863Z,42.30
2018-08-23T09:12:08.584Z,43.00
2018-08-23T09:14:37.220Z,42.40
2018-08-23T09:17:14.630Z,42.70
2018-08-23T09:19:47.887Z,41.90
2018-08-23T09:22:19.377Z,42.80
2018-08-23T09:24:46.936Z,41.90
2018-08-23T09:27:15.333Z,41.30
2018-08-23T09:29:42.836Z,42.00
2018-08-23T09:32:17.380Z,42.10
2018-08-23T09:34:44.925Z,42.40
2018-08-23T09:37:12.493Z,41.90
2018-08-23T09:39:40.471Z,41.40
2018-08-23T09:42:08.272Z,42.10
2018-08-23T09:44:40.324Z,41.90
2018-08-23T09:47:07.852Z,41.80
2018-08-23T09:49:35.403Z,42.00
2018-08-23T09:52:07.432Z,42.20
2018-08-23T09:54:34.975Z,42.70
2018-08-23T09:57:02.572Z,42.10
2018-08-23T09:59:33.610Z,42.10
2018-08-23T10:02:06.573Z,42.00
2018-08-23T10:04:39.647Z,42.80
2018-08-23T10:07:12.543Z,42.50
2018-08-23T10:09:45.517Z,42.80
2018-08-23T10:12:18.481Z,41.20
2018-08-23T10:15:49.568Z,41.40
2018-08-23T10:18:25.627Z,40.50
2018-08-23T10:20:57.831Z,40.60
2018-08-23T10:23:25.424Z,40.70
2018-08-23T10:25:55.096Z,40.70
2018-08-23T10:28:26.840Z,41.30
2018-08-23T10:30:54.804Z,41.70
2018-08-23T10:33:22.333Z,42.00
2018-08-23T10:35:54.213Z,42.10
2018-08-23T10:38:24.851Z,42.40
2018-08-23T10:40:53.591Z,43.40
2018-08-23T10:43:26.495Z,41.90
2018-08-23T10:45:54.084Z,42.30
2018-08-23T10:48:21.636Z,42.10
2018-08-23T10:50:50.152Z,42.80
2018-08-23T10:53:18.129Z,44.40
2018-08-23T10:55:45.960Z,45.20
2018-08-23T10:58:13.574Z,45.10
2018-08-23T11:00:41.563Z,44.80
2018-08-23T11:03:09.120Z,45.30
2018-08-23T11:05:36.712Z,45.90
2018-08-23T11:08:09.801Z,46.10
2018-08-23T11:10:42.847Z,46.60
2018-08-23T11:13:15.826Z,46.50
2018-08-23T11:15:43.413Z,47.40
2018-08-23T11:18:16.292Z,47.70
2018-08-23T11:20:46.980Z,48.00
2018-08-23T11:23:16.554Z,48.70
2018-08-23T11:25:44.099Z,49.30
2018-08-23T11:28:17.054Z,49.50
2018-08-23T11:30:44.595Z,50.00
2018-08-23T11:33:12.160Z,50.20
2018-08-23T11:35:39.682Z,50.30
2018-08-23T11:38:08.364Z,50.90
2018-08-23T11:40:35.932Z,50.20
2018-08-23T11:43:03.808Z,50.20
2018-08-23T11:45:31.428Z,51.20
2018-08-23T11:47:59.344Z,50.80
2018-08-23T11:50:26.878Z,51.20
2018-08-23T11:52:54.421Z,51.00
2018-08-23T11:55:21.944Z,50.80
2018-08-23T11:57:50.130Z,51.10
2018-08-23T12:00:18.134Z,51.20
2018-08-23T12:02:45.710Z,51.20
2018-08-23T12:05:14.872Z,51.20
2018-08-23T12:07:46.465Z,50.80
2018-08-23T12:10:14.953Z,50.90
2018-08-23T12:12:43.221Z,50.20
2018-08-23T12:15:10.767Z,50.60
2018-08-23T12:17:39.059Z,50.60
2018-08-23T12:20:07.221Z,50.90
2018-08-23T12:22:43.127Z,50.60
2018-08-23T12:25:12.434Z,50.10
2018-08-23T12:27:40.699Z,50.20
2018-08-23T12:30:08.273Z,49.90
2018-08-23T12:32:35.877Z,49.80
2018-08-23T12:35:03.604Z,49.40
2018-08-23T12:37:36.786Z,49.60
2018-08-23T12:40:09.787Z,49.20
2018-08-23T12:42:51.754Z,49.40
2018-08-23T12:45:19.387Z,48.70
2018-08-23T12:47:46.929Z,48.90
2018-08-23T12:50:14.451Z,49.40
2018-08-23T12:52:41.987Z,48.70
2018-08-23T12:55:09.560Z,48.00
2018-08-23T12:57:37.101Z,47.00
2018-08-23T13:00:04.715Z,47.20
2018-08-23T13:02:32.366Z,47.50
2018-08-23T13:04:59.860Z,47.60
2018-08-23T13:07:27.410Z,47.80
2018-08-23T13:09:54.948Z,47.20
2018-08-23T13:12:22.561Z,47.20
2018-08-23T13:14:50.212Z,46.90
2018-08-23T13:17:17.739Z,47.20
2018-08-23T13:19:45.287Z,47.70
2018-08-23T13:22:17.122Z,47.90
2018-08-23T13:24:50.257Z,48.10
2018-08-23T13:27:17.840Z,48.00
2018-08-23T13:29:45.453Z,47.70
2018-08-23T13:32:12.988Z,47.00
2018-08-23T13:34:40.741Z,47.30
2018-08-23T13:37:08.366Z,48.10
2018-08-23T13:39:35.829Z,48.70
2018-08-23T13:42:03.389Z,47.40
2018-08-23T13:44:30.964Z,47.80
2018-08-23T13:46:58.488Z,45.70
2018-08-23T13:49:26.733Z,45.60
2018-08-23T13:51:54.251Z,45.00
2018-08-23T13:54:21.834Z,44.60
2018-08-23T13:56:49.360Z,44.10
2018-08-23T13:59:16.948Z,44.00
2018-08-23T14:01:44.502Z,43.90
2018-08-23T14:04:12.085Z,44.50
2018-08-23T14:06:39.629Z,43.80
2018-08-23T14:09:07.206Z,43.40
2018-08-23T14:11:36.058Z,43.60
2018-08-23T14:14:03.672Z,44.10
2018-08-23T14:16:31.235Z,44.00
2018-08-23T14:18:58.788Z,42.20
2018-08-23T14:21:26.331Z,42.40
2018-08-23T14:23:53.881Z,43.60
2018-08-23T14:26:21.456Z,43.30
2018-08-23T14:28:48.994Z,41.80
2018-08-23T14:31:16.543Z,42.60
2018-08-23T14:33:44.076Z,43.00
2018-08-23T14:36:11.634Z,42.80
2018-08-23T14:38:39.237Z,42.90
2018-08-23T14:41:06.769Z,42.60
2018-08-23T14:43:34.337Z,42.10
2018-08-23T14:46:07.352Z,42.80
2018-08-23T14:48:34.932Z,42.10
2018-08-23T14:51:02.517Z,43.30
2018-08-23T14:53:30.814Z,42.80
2018-08-23T14:56:04.808Z,42.20
2018-08-23T14:58:32.382Z,40.20
2018-08-23T15:00:59.980Z,41.20
2018-08-23T15:03:27.585Z,41.70
2018-08-23T15:05:55.132Z,40.90
2018-08-23T15:08:22.678Z,42.40
2018-08-23T15:10:50.225Z,45.00
2018-08-23T15:13:17.752Z,44.00
2018-08-23T15:15:49.536Z,44.60
2018-08-23T15:18:18.376Z,43.60
2018-08-23T15:20:46.077Z,44.00
2018-08-23T15:23:13.556Z,44.00
2018-08-23T15:25:41.186Z,43.50
2018-08-23T15:28:08.937Z,43.80
2018-08-23T15:30:36.535Z,43.30
2018-08-23T15:33:04.450Z,43.80
2018-08-23T15:35:31.944Z,43.90
2018-08-23T15:37:59.486Z,43.10
2018-08-23T15:40:27.289Z,42.60
2018-08-23T15:42:54.892Z,41.50
2018-08-23T15:45:22.453Z,41.60
2018-08-23T15:47:50.498Z,41.80
2018-08-23T15:50:20.473Z,41.70
2018-08-23T15:52:48.025Z,42.00
2018-08-23T15:55:15.732Z,41.80
2018-08-23T15:57:43.252Z,42.10
2018-08-23T16:00:10.784Z,42.60
2018-08-23T16:02:38.422Z,42.70
2018-08-23T16:05:06.331Z,43.60
2018-08-23T16:07:33.933Z,43.50
2018-08-23T16:10:01.510Z,44.20
2018-08-23T16:12:29.192Z,44.30
2018-08-23T16:14:56.976Z,44.60
2018-08-23T16:17:29.863Z,44.50
2018-08-23T16:20:02.965Z,44.20
2018-08-23T16:22:30.555Z,44.10
2018-08-23T16:24:58.170Z,43.70
2018-08-23T16:27:26.107Z,44.50
2018-08-23T16:29:53.904Z,45.10
2018-08-23T16:32:26.992Z,45.20
2018-08-23T16:34:54.545Z,45.20
2018-08-23T16:37:22.152Z,44.90
2018-08-23T16:39:49.757Z,45.20
2018-08-23T16:42:17.332Z,46.20
2018-08-23T16:44:44.881Z,44.90
2018-08-23T16:47:12.838Z,45.40
2018-08-23T16:49:40.402Z,45.70
2018-08-23T16:52:08.233Z,45.10
2018-08-23T16:54:36.147Z,44.80
2018-08-23T16:57:03.973Z,45.20
2018-08-23T16:59:31.493Z,47.80
2018-08-23T17:01:59.848Z,49.40
2018-08-23T17:04:32.800Z,50.50
2018-08-23T17:07:00.329Z,51.70
2018-08-23T17:09:27.872Z,52.00
2018-08-23T17:11:55.419Z,52.70
2018-08-23T17:14:22.979Z,52.90
2018-08-23T17:16:55.939Z,53.30
2018-08-23T17:19:23.481Z,53.60
2018-08-23T17:21:51.024Z,53.90
2018-08-23T17:24:18.623Z,53.90
2018-08-23T17:26:46.115Z,54.10
2018-08-23T17:29:13.722Z,54.20
2018-08-23T17:31:41.275Z,54.40
2018-08-23T17:34:08.898Z,54.80
2018-08-23T17:36:36.485Z,55.60
2018-08-23T17:39:05.560Z,55.20
2018-08-23T17:41:33.996Z,55.40
2018-08-23T17:44:02.568Z,55.40
2018-08-23T17:46:30.176Z,56.00
2018-08-23T17:48:57.752Z,56.10
2018-08-23T17:51:25.293Z,56.40
2018-08-23T17:53:52.855Z,56.60
2018-08-23T17:56:20.443Z,56.60
2018-08-23T17:58:48.089Z,56.80
2018-08-23T18:01:15.620Z,57.70
2018-08-23T18:03:43.227Z,56.90
2018-08-23T18:06:10.825Z,57.70
2018-08-23T18:08:38.381Z,57.60
2018-08-23T18:11:05.956Z,57.40
2018-08-23T18:13:33.548Z,57.90
2018-08-23T18:16:06.708Z,57.80
2018-08-23T18:18:34.256Z,58.10
2018-08-23T18:21:01.843Z,58.30
2018-08-23T18:23:29.424Z,58.40
2018-08-23T18:25:56.958Z,58.30
2018-08-23T18:28:24.536Z,58.30
2018-08-23T18:30:52.108Z,58.40
2018-08-23T18:33:19.821Z,58.50
2018-08-23T18:35:47.331Z,58.50
2018-08-23T18:38:15.105Z,58.80
2018-08-23T18:40:42.646Z,58.50
2018-08-23T18:43:10.403Z,58.70
2018-08-23T18:45:37.959Z,58.60
2018-08-23T18:48:06.099Z,58.60
2018-08-23T18:50:33.633Z,58.60
2018-08-23T18:53:01.167Z,58.60
2018-08-23T18:55:28.769Z,58.70
2018-08-23T18:57:56.435Z,58.80
2018-08-23T19:00:24.010Z,58.70
2018-08-23T19:02:51.575Z,59.00
2018-08-23T19:05:19.154Z,58.80
2018-08-23T19:07:46.698Z,58.50
2018-08-23T19:10:14.224Z,58.70
2018-08-23T19:12:41.902Z,58.60
2018-08-23T19:15:09.522Z,58.60
2018-08-23T19:17:40.159Z,58.70
2018-08-23T19:20:14.105Z,58.20
2018-08-23T19:22:41.700Z,57.60
2018-08-23T19:25:10.233Z,58.40
2018-08-23T19:27:37.819Z,58.10
2018-08-23T19:30:05.714Z,57.70
2018-08-23T19:32:33.278Z,58.00
2018-08-23T19:35:00.919Z,58.00
2018-08-23T19:37:28.589Z,58.50
2018-08-23T19:39:56.174Z,58.80
2018-08-23T19:42:23.820Z,57.90
2018-08-23T19:44:57.156Z,57.70
2018-08-23T19:47:30.394Z,57.20
2018-08-23T19:49:59.304Z,56.90
2018-08-23T19:52:27.346Z,57.10
2018-08-23T19:54:54.920Z,57.50
2018-08-23T19:57:22.594Z,57.70
2018-08-23T19:59:51.232Z,58.30
2018-08-23T20:02:19.771Z,58.50
2018-08-23T20:04:47.320Z,57.20
2018-08-23T20:07:15.307Z,57.90
2018-08-23T20:09:42.916Z,57.40
2018-08-23T20:12:10.956Z,57.60
2018-08-23T20:14:38.718Z,57.20
2018-08-23T20:17:06.288Z,56.90
2018-08-23T20:19:33.896Z,57.20
2018-08-23T20:22:01.441Z,56.70
2018-08-23T20:24:29.415Z,56.60
2018-08-23T20:26:57.803Z,56.60
2018-08-23T20:29:25.373Z,56.10
2018-08-23T20:31:53.248Z,56.30
2018-08-23T20:34:25.072Z,56.10
2018-08-23T20:36:52.652Z,55.90
2018-08-23T20:39:20.440Z,56.20
2018-08-23T20:41:49.722Z,56.10
2018-08-23T20:44:17.294Z,56.90
2018-08-23T20:46:44.914Z,56.70
2018-08-23T20:49:13.668Z,57.20
2018-08-23T20:51:41.247Z,56.70
2018-08-23T20:54:09.915Z,57.80
2018-08-23T20:56:37.651Z,57.60
2018-08-23T20:59:05.358Z,57.60
2018-08-23T21:01:33.166Z,57.60
2018-08-23T21:04:00.941Z,57.70
2018-08-23T21:06:29.931Z,58.10
2018-08-23T21:08:57.488Z,57.70
2018-08-23T21:11:25.105Z,57.90
2018-08-23T21:13:54.085Z,57.80
2018-08-23T21:16:21.695Z,57.70
2018-08-23T21:18:49.291Z,58.30
2018-08-23T21:21:16.918Z,58.20
2018-08-23T21:23:44.464Z,58.10
2018-08-23T21:26:12.023Z,58.40
2018-08-23T21:28:40.597Z,58.50
2018-08-23T21:31:09.521Z,58.60
2018-08-23T21:33:37.099Z,58.80
2018-08-23T21:36:04.669Z,58.30
2018-08-23T21:38:32.194Z,58.00
2018-08-23T21:40:59.785Z,57.70
2018-08-23T21:43:27.385Z,58.10
2018-08-23T21:45:54.979Z,58.50
2018-08-23T21:48:22.515Z,58.50
2018-08-23T21:50:50.108Z,58.90
2018-08-23T21:53:17.643Z,58.30
2018-08-23T21:55:45.212Z,58.70
2018-08-23T21:58:12.816Z,58.80
2018-08-23T22:00:46.879Z,58.60
2018-08-23T22:03:14.468Z,58.80
2018-08-23T22:05:42.595Z,58.80
2018-08-23T22:08:10.499Z,58.70
2018-08-23T22:10:38.365Z,58.80
2018-08-23T22:13:06.052Z,58.60
2018-08-23T22:15:33.696Z,58.40
2018-08-23T22:18:01.271Z,58.50
2018-08-23T22:20:28.835Z,58.20
2018-08-23T22:22:56.367Z,58.50
2018-08-23T22:25:24.021Z,58.50
2018-08-23T22:27:51.546Z,58.30
2018-08-23T22:30:19.096Z,58.50
2018-08-23T22:32:46.716Z,58.20
2018-08-23T22:35:14.254Z,57.50
2018-08-23T22:37:43.210Z,57.80
2018-08-23T22:40:10.757Z,57.90
2018-08-23T22:42:38.303Z,57.80
2018-08-23T22:45:05.905Z,57.80
2018-08-23T22:47:33.452Z,58.50
2018-08-23T22:50:01.044Z,57.70
2018-08-23T22:52:28.578Z,58.30
2018-08-23T22:54:56.102Z,58.40
2018-08-23T22:57:23.660Z,58.50
2018-08-23T22:59:51.185Z,58.70
2018-08-23T23:02:24.392Z,58.90
2018-08-23T23:04:52.125Z,58.50
2018-08-23T23:07:19.680Z,58.70
2018-08-23T23:09:47.234Z,59.20
2018-08-23T23:12:14.804Z,59.00
2018-08-23T23:14:42.354Z,58.50
2018-08-23T23:17:10.767Z,58.40
2018-08-23T23:19:38.557Z,58.90
2018-08-23T23:22:06.195Z,58.80
2018-08-23T23:24:39.256Z,59.70
2018-08-23T23:27:07.070Z,59.40
2018-08-23T23:29:34.612Z,59.20
2018-08-23T23:32:02.183Z,59.60
2018-08-23T23:34:29.717Z,59.90
2018-08-23T23:36:57.258Z,60.50
2018-08-23T23:39:24.780Z,60.30
2018-08-23T23:41:52.315Z,60.50
2018-08-23T23:44:19.860Z,60.80
2018-08-23T23:46:47.447Z,60.20
2018-08-23T23:49:14.987Z,60.30
2018-08-23T23:51:42.511Z,60.50
2018-08-23T23:54:10.087Z,60.60
2018-08-23T23:56:37.647Z,60.30
2018-08-23T23:59:05.643Z,61.00
